Time;durP1;ratioP1;P1;durP2;ratioP2;P2;SDS_P1;SDS_P2;PMS_P1;PMS_P2;Temp;Humidity;BMP_temperature;BMP_pressure;BME280_temperature;BME280_humidity;BME280_pressure;Samples;Min_cycle;Max_cycle;Signal;HPM_P1;HPM_P2
2022/06/08 00:01:20;;;;;;;7.55;2.53;;;15.60;99.90;;;;;;5078894;28;20025;-78
2022/06/08 00:03:54;;;;;;;6.10;2.40;;;15.60;99.90;;;;;;5078983;28;20029;-78
2022/06/08 00:06:21;;;;;;;6.43;2.60;;;15.60;99.90;;;;;;5079071;28;20025;-78
2022/06/08 00:08:46;;;;;;;7.53;3.17;;;15.60;99.90;;;;;;5077973;28;20056;-78
2022/06/08 00:11:13;;;;;;;6.50;2.10;;;15.50;99.90;;;;;;5079032;28;20083;-78
2022/06/08 00:13:40;;;;;;;4.43;1.77;;;15.50;99.90;;;;;;5078944;28;20017;-78
2022/06/08 00:16:06;;;;;;;6.60;2.95;;;15.50;99.90;;;;;;5077684;28;20023;-78
2022/06/08 00:18:32;;;;;;;7.15;3.00;;;15.50;99.90;;;;;;5079329;28;20040;-78
2022/06/08 00:20:58;;;;;;;5.63;2.70;;;15.40;99.90;;;;;;5078212;28;20405;-79
2022/06/08 00:23:23;;;;;;;4.20;1.92;;;15.40;99.90;;;;;;5077497;28;20044;-78
2022/06/08 00:25:49;;;;;;;6.25;1.88;;;15.50;99.90;;;;;;5079199;28;20082;-78
2022/06/08 00:28:15;;;;;;;8.32;2.38;;;15.50;99.90;;;;;;5077068;28;20024;-78
2022/06/08 00:30:41;;;;;;;4.15;2.42;;;15.50;99.90;;;;;;5078432;28;20385;-78
2022/06/08 00:33:06;;;;;;;8.10;2.55;;;15.50;99.90;;;;;;5077202;28;20081;-78
2022/06/08 00:35:32;;;;;;;5.75;2.25;;;15.50;99.90;;;;;;5077972;28;20043;-79
2022/06/08 00:37:58;;;;;;;6.75;2.85;;;15.50;99.90;;;;;;5076694;28;20024;-78
2022/06/08 00:40:38;;;;;;;9.15;3.28;;;15.50;99.90;;;;;;5079133;28;20141;-78
2022/06/08 00:43:03;;;;;;;6.20;2.72;;;15.60;99.90;;;;;;5077172;28;20128;-78
2022/06/08 00:45:29;;;;;;;7.18;3.38;;;15.50;99.90;;;;;;5076987;28;20052;-78
2022/06/08 00:48:01;;;;;;;6.60;3.22;;;15.50;99.90;;;;;;5078222;28;20033;-78
2022/06/08 00:50:45;;;;;;;7.03;3.15;;;15.50;99.90;;;;;;5077197;28;20021;-79
2022/06/08 00:53:14;;;;;;;10.98;3.60;;;15.60;99.90;;;;;;5076981;28;20028;-78
2022/06/08 00:55:41;;;;;;;7.78;3.25;;;15.60;99.90;;;;;;5077376;28;20449;-78
2022/06/08 00:58:11;;;;;;;9.13;3.83;;;15.60;99.90;;;;;;5077313;28;20084;-79
2022/06/08 01:00:40;;;;;;;9.70;4.28;;;15.60;99.90;;;;;;5079348;28;20031;-78
2022/06/08 01:03:07;;;;;;;7.90;3.95;;;15.60;99.90;;;;;;5078580;28;20021;-78
2022/06/08 01:05:50;;;;;;;9.30;3.78;;;15.50;99.90;;;;;;5078124;28;20417;-79
2022/06/08 01:08:26;;;;;;;9.30;4.55;;;15.50;99.90;;;;;;5076261;28;20029;-78
2022/06/08 01:10:55;;;;;;;13.82;4.75;;;15.50;99.90;;;;;;5072754;28;20424;-77
2022/06/08 01:13:20;;;;;;;8.85;4.63;;;15.50;99.90;;;;;;5074371;28;20465;-77
2022/06/08 01:15:46;;;;;;;11.25;4.57;;;15.50;99.90;;;;;;5074215;28;20020;-77
2022/06/08 01:18:12;;;;;;;13.25;5.40;;;15.50;99.90;;;;;;5072962;28;20075;-78
2022/06/08 01:21:14;;;;;;;12.90;4.95;;;15.40;99.90;;;;;;5073224;28;20432;-77
2022/06/08 01:23:39;;;;;;;13.77;5.18;;;15.40;99.90;;;;;;5073464;28;20025;-77
2022/06/08 01:26:20;;;;;;;13.80;6.13;;;15.40;99.90;;;;;;5072934;28;20031;-77
2022/06/08 01:29:04;;;;;;;19.88;6.45;;;15.40;99.90;;;;;;5074500;28;20020;-77
2022/06/08 01:31:45;;;;;;;16.23;6.43;;;15.40;99.90;;;;;;5074020;28;20021;-77
2022/06/08 01:34:25;;;;;;;15.20;6.25;;;15.40;99.90;;;;;;5075965;28;20021;-78
2022/06/08 01:37:05;;;;;;;15.85;7.30;;;15.40;99.90;;;;;;5076390;28;20025;-78
2022/06/08 01:39:42;;;;;;;17.42;7.75;;;15.40;99.90;;;;;;5075744;28;20090;-78
2022/06/08 01:42:26;;;;;;;18.08;7.63;;;15.40;99.90;;;;;;5076748;28;20387;-78
2022/06/08 01:48:11;;;;;;;15.05;7.80;;;15.30;99.90;;;;;;5073143;28;20482;-78
2022/06/08 01:50:49;;;;;;;;;;;15.30;99.90;;;;;;5074342;28;20050;-77
2022/06/08 01:53:20;;;;;;;17.35;8.02;;;15.30;99.90;;;;;;5077645;28;19948;-77
2022/06/08 01:56:05;;;;;;;23.80;8.57;;;15.30;99.90;;;;;;5080459;28;20469;-78
2022/06/08 01:58:49;;;;;;;18.65;9.30;;;15.20;99.90;;;;;;5080749;28;20028;-78
2022/06/08 02:01:22;;;;;;;19.30;8.40;;;15.10;99.90;;;;;;5080770;28;20086;-78
2022/06/08 02:04:01;;;;;;;20.25;9.15;;;15.10;99.90;;;;;;5077810;28;20047;-78
2022/06/08 02:06:39;;;;;;;21.02;9.55;;;15.10;99.90;;;;;;5076849;28;20024;-77
2022/06/08 02:09:13;;;;;;;19.90;8.40;;;15.00;99.90;;;;;;5077178;28;20062;-79
2022/06/08 02:11:55;;;;;;;20.27;9.27;;;15.00;99.90;;;;;;5077180;28;20024;-78
2022/06/08 02:14:33;;;;;;;23.98;9.88;;;14.90;99.90;;;;;;5075148;28;20036;-75
2022/06/08 02:17:15;;;;;;;16.80;8.30;;;14.90;99.90;;;;;;5076473;28;20024;-75
2022/06/08 02:19:52;;;;;;;21.48;10.23;;;14.80;99.90;;;;;;5075169;28;20016;-75
2022/06/08 02:22:27;;;;;;;21.58;9.77;;;14.80;99.90;;;;;;5076735;28;20500;-75
2022/06/08 02:25:06;;;;;;;20.85;9.93;;;14.60;99.90;;;;;;5075023;28;20028;-75
2022/06/08 02:27:41;;;;;;;26.10;10.40;;;14.60;99.90;;;;;;5076622;28;20039;-75
2022/06/08 02:30:20;;;;;;;23.13;9.73;;;14.60;99.90;;;;;;5076558;28;20499;-76
2022/06/08 02:36:02;;;;;;;21.08;10.02;;;14.40;99.90;;;;;;5076387;28;20388;-76
2022/06/08 02:38:36;;;;;;;22.00;10.10;;;14.50;99.90;;;;;;5074886;28;20028;-76
2022/06/08 02:41:05;;;;;;;22.10;10.00;;;14.40;99.90;;;;;;5076552;28;20028;-78
2022/06/08 02:43:32;;;;;;;;;;;14.30;99.90;;;;;;5080192;28;20085;-78
2022/06/08 02:46:26;;;;;;;24.40;10.07;;;14.30;99.90;;;;;;5077214;28;19912;-79
2022/06/08 02:48:51;;;;;;;25.45;10.57;;;14.30;99.90;;;;;;5066266;28;20139;-78
2022/06/08 02:51:27;;;;;;;21.40;10.05;;;14.20;99.90;;;;;;5077799;28;20048;-78
2022/06/08 02:54:00;;;;;;;19.75;9.63;;;14.20;99.90;;;;;;5078215;28;20017;-78
2022/06/08 02:56:44;;;;;;;24.55;9.90;;;14.10;99.90;;;;;;5077404;28;20074;-79
2022/06/08 02:59:20;;;;;;;22.13;9.23;;;14.10;99.90;;;;;;5075733;28;20104;-76
2022/06/08 03:02:19;;;;;;;19.17;9.73;;;14.20;99.90;;;;;;5075870;28;20028;-76
2022/06/08 03:04:54;;;;;;;20.23;9.93;;;14.10;99.90;;;;;;5075697;28;20496;-76
2022/06/08 03:07:25;;;;;;;20.65;9.65;;;14.10;99.90;;;;;;5076220;28;20469;-75
2022/06/08 03:09:51;;;;;;;23.70;10.68;;;14.10;99.90;;;;;;5076325;28;20025;-78
2022/06/08 03:12:30;;;;;;;21.88;9.52;;;14.00;99.90;;;;;;5076472;28;20020;-78
2022/06/08 03:15:01;;;;;;;27.60;10.90;;;14.00;99.90;;;;;;5076387;28;20028;-78
2022/06/08 03:17:31;;;;;;;20.77;9.38;;;14.10;99.90;;;;;;5076712;28;20016;-78
2022/06/08 03:19:57;;;;;;;24.27;10.65;;;14.00;99.90;;;;;;5074864;28;20031;-77
2022/06/08 03:22:23;;;;;;;19.90;10.57;;;14.00;99.90;;;;;;5076139;28;20366;-78
2022/06/08 03:24:49;;;;;;;22.85;10.02;;;14.00;99.90;;;;;;5086453;28;20047;-78
2022/06/08 03:27:15;;;;;;;22.10;10.70;;;14.00;99.90;;;;;;5086069;28;20068;-78
2022/06/08 03:29:41;;;;;;;23.10;11.52;;;14.00;99.90;;;;;;5085575;28;20067;-78
2022/06/08 03:32:06;;;;;;;20.63;10.00;;;14.00;99.90;;;;;;5086198;28;20027;-78
2022/06/08 03:34:32;;;;;;;21.88;10.65;;;14.00;99.90;;;;;;5085356;28;20021;-78
2022/06/08 03:36:58;;;;;;;22.08;10.60;;;14.00;99.90;;;;;;5086065;28;20473;-78
2022/06/08 03:39:24;;;;;;;26.00;11.40;;;14.00;99.90;;;;;;5085660;28;20075;-78
2022/06/08 03:41:49;;;;;;;21.30;10.93;;;14.00;99.90;;;;;;5081773;28;20366;-78
2022/06/08 03:44:15;;;;;;;24.63;10.38;;;14.00;99.90;;;;;;5080814;28;20024;-78
2022/06/08 03:46:56;;;;;;;17.52;8.93;;;14.00;99.90;;;;;;5081579;28;20037;-78
2022/06/08 03:49:23;;;;;;;21.75;9.98;;;14.00;99.90;;;;;;5080793;28;20028;-78
2022/06/08 03:51:52;;;;;;;18.25;9.32;;;14.00;99.90;;;;;;5080816;28;20025;-78
2022/06/08 03:54:21;;;;;;;22.35;9.80;;;14.00;99.90;;;;;;5081954;28;20028;-78
2022/06/08 03:56:52;;;;;;;22.63;9.40;;;14.10;99.90;;;;;;5080407;28;20485;-78
2022/06/08 03:59:18;;;;;;;20.23;10.00;;;14.10;99.90;;;;;;5079850;28;20047;-78
2022/06/08 04:01:44;;;;;;;21.02;10.85;;;14.20;99.90;;;;;;5080107;28;20029;-78
2022/06/08 04:04:11;;;;;;;22.13;10.13;;;14.20;99.90;;;;;;5080287;28;20028;-78
2022/06/08 04:06:37;;;;;;;21.25;10.02;;;14.30;99.90;;;;;;5081924;28;20036;-78
2022/06/08 04:09:03;;;;;;;19.08;9.50;;;14.40;99.90;;;;;;5082269;28;20103;-78
2022/06/08 04:11:29;;;;;;;19.77;9.43;;;14.80;99.90;;;;;;5079481;28;20032;-77
2022/06/08 04:13:55;;;;;;;19.08;9.73;;;14.50;99.90;;;;;;5078435;28;20023;-78
2022/06/08 04:16:21;;;;;;;18.90;9.75;;;14.70;99.90;;;;;;5079426;28;20025;-78
2022/06/08 04:18:47;;;;;;;17.48;8.70;;;14.60;99.90;;;;;;5080783;28;20158;-78
2022/06/08 04:21:15;;;;;;;20.63;10.02;;;14.60;99.90;;;;;;5080254;28;20027;-78
2022/06/08 04:23:42;;;;;;;18.27;9.73;;;14.60;99.90;;;;;;5079938;28;20182;-78
2022/06/08 04:26:09;;;;;;;19.20;9.77;;;14.70;99.90;;;;;;5080392;28;20047;-78
2022/06/08 04:28:35;;;;;;;19.60;10.82;;;14.70;99.90;;;;;;5078747;28;20400;-78
2022/06/08 04:31:01;;;;;;;18.08;9.80;;;14.70;99.90;;;;;;5078572;28;20112;-78
2022/06/08 04:33:27;;;;;;;16.98;9.32;;;14.70;99.90;;;;;;5079349;28;20055;-78
2022/06/08 04:35:53;;;;;;;16.52;8.80;;;14.80;99.90;;;;;;5078688;28;20016;-78
2022/06/08 04:38:19;;;;;;;20.52;9.57;;;14.90;99.90;;;;;;5080901;28;20145;-78
2022/06/08 04:40:45;;;;;;;16.40;8.88;;;14.90;99.90;;;;;;5074163;28;20077;-78
2022/06/08 04:43:12;;;;;;;17.15;8.27;;;15.00;99.90;;;;;;5082016;28;20021;-78
2022/06/08 04:45:38;;;;;;;15.93;8.65;;;15.30;99.90;;;;;;5080230;28;20028;-77
2022/06/08 04:48:05;;;;;;;23.00;10.18;;;15.20;99.90;;;;;;5074169;28;20443;-77
2022/06/08 04:50:31;;;;;;;15.98;8.85;;;15.30;99.90;;;;;;5078908;28;20038;-78
2022/06/08 04:52:58;;;;;;;17.85;9.32;;;15.40;99.90;;;;;;5083233;28;20027;-78
2022/06/08 04:55:24;;;;;;;18.85;8.57;;;15.50;99.90;;;;;;5083966;28;20017;-78
2022/06/08 04:57:50;;;;;;;18.17;9.18;;;15.50;99.90;;;;;;5082029;28;20029;-78
2022/06/08 05:00:18;;;;;;;15.30;8.57;;;16.00;99.90;;;;;;5084922;28;20017;-77
2022/06/08 05:02:48;;;;;;;17.00;8.82;;;15.60;99.90;;;;;;5084244;28;20465;-78
2022/06/08 05:05:21;;;;;;;17.85;9.18;;;15.60;99.90;;;;;;5084559;28;20044;-78
2022/06/08 05:07:48;;;;;;;17.73;9.35;;;15.60;99.90;;;;;;5083644;28;20029;-78
2022/06/08 05:10:14;;;;;;;15.88;7.80;;;15.60;99.90;;;;;;5084227;28;20068;-78
2022/06/08 05:12:40;;;;;;;16.25;8.73;;;15.50;99.90;;;;;;5082273;28;20059;-78
2022/06/08 05:15:09;;;;;;;15.70;8.38;;;15.70;99.90;;;;;;5084191;28;20020;-78
2022/06/08 05:17:35;;;;;;;14.80;8.35;;;15.70;99.90;;;;;;5083959;28;20135;-78
2022/06/08 05:20:02;;;;;;;16.35;7.63;;;15.80;99.90;;;;;;5080955;28;20048;-77
2022/06/08 05:22:27;;;;;;;17.13;7.88;;;15.80;99.90;;;;;;5082766;28;20032;-78
2022/06/08 05:24:54;;;;;;;16.85;7.97;;;15.90;99.90;;;;;;5079229;28;20012;-77
2022/06/08 05:27:20;;;;;;;14.07;8.30;;;15.80;99.90;;;;;;5079641;28;20074;-77
2022/06/08 05:29:45;;;;;;;15.23;7.65;;;15.80;99.90;;;;;;5079592;28;20036;-77
2022/06/08 05:32:11;;;;;;;18.63;8.75;;;15.80;99.90;;;;;;5075847;28;20020;-77
2022/06/08 05:34:37;;;;;;;16.05;8.52;;;15.80;99.90;;;;;;5077101;28;20063;-77
2022/06/08 05:37:03;;;;;;;13.02;6.60;;;15.80;99.90;;;;;;5078125;28;20020;-77
2022/06/08 05:39:29;;;;;;;12.98;7.22;;;15.80;99.90;;;;;;5084317;28;20025;-77
2022/06/08 05:41:54;;;;;;;14.40;7.15;;;16.00;99.90;;;;;;5077899;28;20546;-77
2022/06/08 05:44:20;;;;;;;14.45;7.97;;;16.00;99.90;;;;;;5080425;28;20025;-78
2022/06/08 05:46:50;;;;;;;13.30;6.75;;;16.60;99.90;;;;;;5082230;28;20120;-77
2022/06/08 05:49:17;;;;;;;12.68;6.85;;;16.10;99.90;;;;;;5081284;28;20040;-77
2022/06/08 05:51:43;;;;;;;12.13;6.20;;;16.10;99.90;;;;;;5078424;28;20086;-77
2022/06/08 05:54:09;;;;;;;11.30;6.53;;;16.20;99.90;;;;;;5077797;28;20013;-77
2022/06/08 05:56:35;;;;;;;14.07;6.40;;;17.00;99.90;;;;;;5077120;28;20090;-77
2022/06/08 05:59:00;;;;;;;13.20;6.38;;;16.30;99.90;;;;;;5077992;28;20096;-77
2022/06/08 06:01:26;;;;;;;11.65;6.30;;;16.50;99.90;;;;;;5076649;28;20473;-76
2022/06/08 06:03:52;;;;;;;18.38;6.93;;;16.50;99.90;;;;;;5080932;28;20020;-79
2022/06/08 06:06:18;;;;;;;12.32;6.20;;;16.60;99.90;;;;;;5082406;28;20028;-78
2022/06/08 06:08:45;;;;;;;12.25;7.53;;;16.80;99.90;;;;;;5083810;28;20028;-79
2022/06/08 06:11:13;;;;;;;15.13;6.28;;;16.90;99.90;;;;;;5084885;28;20017;-79
2022/06/08 06:13:39;;;;;;;10.85;5.95;;;17.00;99.90;;;;;;5084332;28;20043;-78
2022/06/08 06:16:05;;;;;;;11.85;6.45;;;17.40;99.90;;;;;;5085789;28;20079;-78
2022/06/08 06:18:31;;;;;;;9.07;4.93;;;17.20;99.90;;;;;;5084748;28;20032;-78
2022/06/08 06:20:57;;;;;;;12.95;6.38;;;17.20;99.90;;;;;;5084686;28;20571;-78
2022/06/08 06:23:23;;;;;;;10.50;5.88;;;17.30;99.90;;;;;;5084012;28;20035;-79
2022/06/08 06:25:49;;;;;;;11.55;5.78;;;17.40;99.90;;;;;;5084048;28;20386;-79
2022/06/08 06:28:14;;;;;;;7.97;4.13;;;17.50;99.90;;;;;;5082065;28;20028;-78
2022/06/08 06:30:40;;;;;;;7.97;5.18;;;17.60;99.90;;;;;;5081609;28;20021;-78
2022/06/08 06:33:07;;;;;;;10.70;4.85;;;17.80;99.90;;;;;;5080784;28;20571;-78
2022/06/08 06:35:33;;;;;;;8.35;4.88;;;17.90;99.90;;;;;;5085220;28;20028;-78
2022/06/08 06:37:59;;;;;;;14.40;4.72;;;18.30;99.90;;;;;;5085185;28;20020;-78
2022/06/08 06:40:24;;;;;;;8.68;3.72;;;18.00;99.90;;;;;;5083779;28;20096;-78
2022/06/08 06:42:50;;;;;;;5.90;3.38;;;18.10;99.90;;;;;;5078897;28;20029;-78
2022/06/08 06:45:16;;;;;;;9.52;3.55;;;18.30;99.90;;;;;;5082349;28;20016;-79
2022/06/08 06:47:42;;;;;;;7.22;3.92;;;18.70;99.90;;;;;;5083878;28;20435;-79
2022/06/08 06:50:10;;;;;;;6.97;3.70;;;18.50;99.90;;;;;;5080524;28;20009;-79
2022/06/08 06:52:36;;;;;;;13.18;3.47;;;18.70;99.90;;;;;;5082215;28;20474;-78
2022/06/08 06:55:01;;;;;;;7.85;3.17;;;18.90;99.90;;;;;;5079466;28;20012;-77
2022/06/08 06:57:27;;;;;;;8.18;3.20;;;19.00;99.90;;;;;;5074401;28;20055;-78
2022/06/08 06:59:52;;;;;;;6.50;3.03;;;19.10;99.90;;;;;;5074367;28;20013;-77
2022/06/08 07:02:20;;;;;;;8.77;3.55;;;19.10;99.90;;;;;;5075595;28;20032;-77
2022/06/08 07:04:47;;;;;;;6.80;2.90;;;19.00;99.90;;;;;;5075673;28;20032;-77
2022/06/08 07:07:13;;;;;;;5.93;3.40;;;19.10;99.90;;;;;;5075540;28;20025;-78
2022/06/08 07:09:39;;;;;;;6.28;2.97;;;19.20;99.90;;;;;;5076187;28;20110;-77
2022/06/08 07:12:06;;;;;;;4.05;2.72;;;19.30;99.90;;;;;;5076188;28;20397;-77
2022/06/08 07:14:32;;;;;;;4.72;2.85;;;19.40;99.90;;;;;;5075997;28;20366;-78
2022/06/08 07:16:58;;;;;;;5.50;2.85;;;19.50;99.90;;;;;;5075397;28;20025;-76
2022/06/08 07:19:24;;;;;;;5.35;3.08;;;19.60;99.90;;;;;;5075272;28;20477;-77
2022/06/08 07:21:49;;;;;;;5.25;2.53;;;19.60;99.90;;;;;;5074001;28;20439;-77
2022/06/08 07:24:19;;;;;;;3.50;2.20;;;19.60;99.90;;;;;;5075394;28;20033;-77
2022/06/08 07:26:45;;;;;;;4.93;2.55;;;19.70;99.90;;;;;;5073810;28;20478;-76
2022/06/08 07:29:10;;;;;;;5.60;2.75;;;19.90;99.90;;;;;;5075186;28;20020;-76
2022/06/08 07:31:36;;;;;;;11.38;3.33;;;19.90;99.90;;;;;;5074241;28;20070;-79
2022/06/08 07:34:02;;;;;;;3.38;2.10;;;19.90;99.90;;;;;;5076814;28;20081;-78
2022/06/08 07:36:27;;;;;;;3.80;1.90;;;20.10;99.90;;;;;;5073607;28;20500;-77
2022/06/08 07:38:53;;;;;;;2.83;1.45;;;19.90;99.90;;;;;;5074618;28;20020;-77
2022/06/08 07:41:18;;;;;;;2.65;1.63;;;19.80;99.90;;;;;;5073623;28;20024;-77
2022/06/08 07:43:44;;;;;;;3.33;1.70;;;19.70;99.90;;;;;;5074975;28;20135;-77
2022/06/08 07:46:10;;;;;;;4.53;2.28;;;19.70;99.90;;;;;;5074500;28;20028;-77
2022/06/08 07:51:20;;;;;;;3.97;1.27;;;19.50;99.90;;;;;;5067929;28;20527;-78
2022/06/08 07:53:46;;;;;;;2.88;1.38;;;19.40;99.90;;;;;;5073918;28;20024;-78
2022/06/08 07:56:11;;;;;;;1.70;0.82;;;19.30;99.90;;;;;;5072836;28;20020;-78
2022/06/08 07:58:37;;;;;;;3.10;0.90;;;19.30;99.90;;;;;;5074510;28;20024;-78
2022/06/08 08:01:04;;;;;;;1.38;0.82;;;19.30;99.90;;;;;;5074726;28;20415;-78
2022/06/08 08:03:30;;;;;;;2.88;0.50;;;19.30;99.90;;;;;;5072376;28;20434;-78
2022/06/08 08:05:55;;;;;;;2.40;0.90;;;19.30;99.90;;;;;;5074709;28;20012;-78
2022/06/08 08:08:21;;;;;;;5.25;0.95;;;19.30;99.90;;;;;;5074260;28;20074;-78
2022/06/08 08:10:46;;;;;;;4.35;1.48;;;19.30;99.90;;;;;;5074633;28;20043;-78
2022/06/08 08:13:13;;;;;;;2.28;0.98;;;19.50;99.90;;;;;;5072937;28;20495;-78
2022/06/08 08:15:40;;;;;;;6.32;1.48;;;19.50;99.90;;;;;;5072790;28;20047;-78
2022/06/08 08:18:06;;;;;;;1.80;0.90;;;19.60;99.90;;;;;;5074665;28;20067;-78
2022/06/08 08:20:34;;;;;;;3.30;1.40;;;19.60;99.90;;;;;;5074391;28;20025;-78
2022/06/08 08:23:00;;;;;;;2.15;1.08;;;19.80;99.90;;;;;;5074048;28;20054;-78
2022/06/08 08:25:27;;;;;;;2.42;1.38;;;20.00;99.90;;;;;;5072705;28;20040;-78
2022/06/08 08:27:54;;;;;;;1.80;1.35;;;20.20;99.90;;;;;;5072673;28;20051;-78
2022/06/08 08:30:24;;;;;;;3.55;1.50;;;20.20;99.90;;;;;;5073944;28;20024;-78
2022/06/08 08:32:50;;;;;;;3.35;1.35;;;20.20;99.90;;;;;;5072861;28;20012;-78
2022/06/08 08:35:16;;;;;;;2.88;1.10;;;20.30;99.90;;;;;;5072532;28;20020;-78
2022/06/08 08:37:43;;;;;;;3.72;1.73;;;20.40;99.90;;;;;;5073976;28;20095;-78
2022/06/08 08:40:30;;;;;;;5.60;1.75;;;20.50;99.90;;;;;;5074322;28;20457;-78
2022/06/08 08:42:57;;;;;;;2.80;1.67;;;20.70;99.90;;;;;;5073759;28;20029;-78
2022/06/08 08:45:23;;;;;;;5.55;1.40;;;20.70;99.90;;;;;;5073668;28;20090;-77
2022/06/08 08:48:14;;;;;;;7.38;1.83;;;20.80;99.90;;;;;;5074001;28;20029;-77
2022/06/08 08:50:47;;;;;;;3.75;1.25;;;20.90;99.90;;;;;;5073768;28;20021;-78
2022/06/08 08:53:26;;;;;;;4.10;1.13;;;21.00;99.90;;;;;;5072365;28;20055;-78
2022/06/08 08:56:03;;;;;;;1.92;0.90;;;20.90;99.90;;;;;;5074080;28;20036;-78
2022/06/08 08:58:41;;;;;;;4.78;0.88;;;20.90;99.90;;;;;;5073697;28;20428;-78
2022/06/08 09:01:28;;;;;;;5.50;1.45;;;20.80;99.90;;;;;;5073625;28;20112;-77
2022/06/08 09:04:15;;;;;;;2.65;1.20;;;20.80;99.90;;;;;;5073446;28;20020;-77
2022/06/08 09:06:40;;;;;;;2.40;0.68;;;20.80;99.90;;;;;;5073485;28;20028;-77
2022/06/08 09:09:13;;;;;;;3.50;1.13;;;20.80;99.90;;;;;;5072214;28;20027;-77
2022/06/08 09:11:43;;;;;;;5.43;1.40;;;20.70;99.90;;;;;;5072546;28;20068;-77
2022/06/08 09:14:15;;;;;;;2.78;0.75;;;20.70;99.90;;;;;;5073390;28;20024;-77
2022/06/08 09:16:47;;;;;;;4.82;1.40;;;20.80;99.90;;;;;;5073314;28;20028;-77
2022/06/08 09:19:24;;;;;;;4.40;1.08;;;20.80;99.90;;;;;;5072083;28;20362;-77
2022/06/08 09:22:02;;;;;;;2.00;1.25;;;20.90;99.90;;;;;;5072141;28;20032;-77
2022/06/08 09:24:41;;;;;;;5.65;2.28;;;21.10;99.90;;;;;;5073202;28;20100;-78
2022/06/08 09:27:27;;;;;;;4.05;1.35;;;21.20;99.90;;;;;;5073661;28;20070;-77
2022/06/08 09:30:12;;;;;;;3.75;1.20;;;21.30;99.90;;;;;;5073032;28;20016;-77
2022/06/08 09:32:39;;;;;;;3.42;1.55;;;21.30;99.90;;;;;;5073212;28;20025;-78
2022/06/08 09:35:35;;;;;;;8.13;1.80;;;21.30;99.90;;;;;;5073715;28;20372;-77
2022/06/08 09:38:11;;;;;;;2.05;1.55;;;21.20;99.90;;;;;;5072056;28;20039;-76
2022/06/08 09:40:57;;;;;;;3.78;1.25;;;21.20;99.90;;;;;;5073284;28;20078;-76
2022/06/08 09:43:48;;;;;;;4.45;1.30;;;21.10;99.90;;;;;;5058906;28;20382;-76
2022/06/08 09:52:46;;;;;;;3.38;1.40;;;20.40;99.90;;;;;;5011308;28;20403;-76
2022/06/08 09:55:14;;;;;;;3.83;1.67;;;20.10;99.90;;;;;;5056559;28;20489;-76
2022/06/08 09:57:48;;;;;;;3.30;1.92;;;19.90;99.90;;;;;;5073494;28;20047;-76
2022/06/08 10:00:29;;;;;;;4.10;2.00;;;19.80;99.90;;;;;;5073271;28;20021;-76
2022/06/08 10:03:38;;;;;;;4.13;1.27;;;19.60;99.90;;;;;;5071772;28;20455;-77
2022/06/08 10:06:23;;;;;;;3.15;1.20;;;19.40;99.90;;;;;;5073120;28;20078;-76
2022/06/08 10:09:00;;;;;;;6.50;1.35;;;19.40;99.90;;;;;;5071644;28;20427;-76
2022/06/08 10:11:37;;;;;;;7.28;1.08;;;19.50;99.90;;;;;;5074383;28;20027;-76
2022/06/08 10:14:28;;;;;;;2.35;0.63;;;19.40;99.90;;;;;;5076659;28;20036;-76
2022/06/08 10:17:01;;;;;;;2.65;0.63;;;19.40;99.90;;;;;;5076576;28;20021;-76
2022/06/08 10:19:36;;;;;;;1.75;0.35;;;19.10;99.90;;;;;;5076658;28;20024;-76
2022/06/08 10:22:03;;;;;;;1.70;0.50;;;18.90;99.90;;;;;;5076362;28;20043;-76
2022/06/08 10:24:45;;;;;;;4.75;0.77;;;18.80;99.90;;;;;;5076374;28;20523;-76
2022/06/08 10:27:20;;;;;;;4.63;0.65;;;18.80;99.90;;;;;;5075508;28;20036;-77
2022/06/08 10:30:07;;;;;;;2.42;0.20;;;18.70;99.90;;;;;;5076785;28;20024;-76
2022/06/08 10:32:39;;;;;;;4.68;0.40;;;18.80;99.90;;;;;;5076705;28;20032;-76
2022/06/08 10:35:38;;;;;;;0.85;0.20;;;18.70;99.90;;;;;;5076563;28;20025;-76
2022/06/08 10:38:06;;;;;;;5.03;0.10;;;18.80;99.90;;;;;;5061403;28;20036;-76
2022/06/08 10:40:53;;;;;;;0.98;0.17;;;18.80;99.90;;;;;;5076152;28;20039;-76
2022/06/08 10:43:24;;;;;;;1.60;0.20;;;18.90;99.90;;;;;;5076059;28;20024;-76
2022/06/08 10:45:55;;;;;;;2.08;0.40;;;18.90;99.90;;;;;;5076272;28;20350;-76
2022/06/08 10:48:27;;;;;;;0.52;0.00;;;18.90;99.90;;;;;;5053284;23;20029;-75
2022/06/08 10:51:23;;;;;;;1.27;0.00;;;18.90;99.90;;;;;;5035257;28;20030;-75
2022/06/08 10:56:36;;;;;;;1.48;0.00;;;18.70;99.90;;;;;;5036620;28;20505;-75
2022/06/08 10:59:08;;;;;;;1.00;0.08;;;18.80;99.90;;;;;;5035863;28;20033;-75
2022/06/08 11:01:46;;;;;;;2.92;0.30;;;18.80;99.90;;;;;;5036068;28;20033;-75
2022/06/08 11:04:32;;;;;;;1.90;0.10;;;18.80;99.90;;;;;;5036252;28;20482;-75
2022/06/08 11:07:00;;;;;;;3.70;0.00;;;18.70;99.90;;;;;;5033979;28;20030;-75
2022/06/08 11:09:34;;;;;;;2.87;0.10;;;18.60;99.90;;;;;;5035543;28;20080;-75
2022/06/08 11:12:27;;;;;;;1.17;0.20;;;18.60;99.90;;;;;;5034357;28;20496;-75
2022/06/08 11:15:04;;;;;;;1.45;0.30;;;18.50;99.90;;;;;;5029135;28;20489;-75
2022/06/08 11:17:45;;;;;;;2.88;0.20;;;18.40;99.90;;;;;;5035408;28;20026;-75
2022/06/08 11:20:27;;;;;;;4.68;0.10;;;18.20;99.90;;;;;;5036319;28;20017;-75
2022/06/08 11:23:09;;;;;;;0.50;0.00;;;18.10;99.90;;;;;;5035186;28;20394;-75
2022/06/08 11:25:58;;;;;;;3.58;0.20;;;17.90;99.90;;;;;;5033890;28;20111;-75
2022/06/08 11:28:43;;;;;;;1.48;0.00;;;17.70;99.90;;;;;;5035295;28;20026;-75
2022/06/08 11:31:29;;;;;;;2.45;0.17;;;17.70;99.90;;;;;;5035150;28;20029;-75
2022/06/08 11:34:19;;;;;;;1.05;0.17;;;17.60;99.90;;;;;;5024729;28;20040;-75
2022/06/08 11:36:54;;;;;;;2.05;0.52;;;17.40;99.90;;;;;;5035363;28;20052;-75
2022/06/08 11:39:37;;;;;;;4.03;0.10;;;17.30;99.90;;;;;;5035211;28;20021;-75
2022/06/08 11:42:24;;;;;;;2.33;0.20;;;17.30;99.90;;;;;;5035078;28;20548;-75
2022/06/08 11:45:14;;;;;;;2.28;0.00;;;17.30;99.90;;;;;;5035270;28;20044;-75
2022/06/08 11:47:49;;;;;;;4.25;0.28;;;17.20;99.90;;;;;;5025441;28;20060;-75
2022/06/08 11:50:25;;;;;;;3.25;0.25;;;17.20;99.90;;;;;;5033734;28;20390;-75
2022/06/08 11:53:03;;;;;;;1.33;0.10;;;17.20;99.90;;;;;;5035011;28;20405;-75
2022/06/08 11:55:34;;;;;;;4.40;0.50;;;17.20;99.90;;;;;;5034996;28;20032;-77
2022/06/08 11:58:05;;;;;;;2.55;0.50;;;17.20;99.90;;;;;;5035205;28;20410;-75
2022/06/08 12:00:53;;;;;;;4.55;0.43;;;17.20;99.90;;;;;;5034518;28;20032;-75
2022/06/08 12:03:38;;;;;;;2.15;0.40;;;17.20;99.90;;;;;;5034647;28;20101;-75
2022/06/08 12:06:27;;;;;;;4.80;0.30;;;17.20;99.90;;;;;;5034481;28;20026;-75
2022/06/08 12:08:58;;;;;;;7.05;0.25;;;17.20;99.90;;;;;;5034302;28;20038;-75
2022/06/08 12:11:28;;;;;;;4.00;0.20;;;17.20;99.90;;;;;;5034792;28;20045;-75
2022/06/08 12:14:13;;;;;;;2.78;0.43;;;17.10;99.90;;;;;;5034742;28;20541;-75
2022/06/08 12:16:52;;;;;;;1.88;0.32;;;17.10;99.90;;;;;;5034598;28;20032;-75
2022/06/08 12:19:22;;;;;;;3.20;0.28;;;17.10;99.90;;;;;;5033326;28;20026;-75
2022/06/08 12:22:05;;;;;;;6.25;0.35;;;17.20;99.90;;;;;;5034461;28;20387;-76
2022/06/08 12:24:31;;;;;;;4.18;0.32;;;17.30;99.90;;;;;;5034436;28;20057;-76
2022/06/08 12:27:20;;;;;;;2.65;0.25;;;17.20;99.90;;;;;;5034046;28;20036;-76
2022/06/08 12:29:56;;;;;;;6.43;0.93;;;17.10;99.90;;;;;;5034460;28;20025;-76
2022/06/08 12:32:30;;;;;;;6.07;0.38;;;17.10;99.90;;;;;;5032741;28;20025;-75
2022/06/08 12:35:05;;;;;;;4.18;0.43;;;17.00;99.90;;;;;;5033661;28;20034;-75
2022/06/08 12:37:40;;;;;;;2.97;0.22;;;17.00;99.90;;;;;;5034039;28;20030;-75
2022/06/08 12:40:26;;;;;;;2.88;0.30;;;16.90;99.90;;;;;;5032723;28;20363;-75
2022/06/08 12:43:14;;;;;;;3.40;0.95;;;17.00;99.90;;;;;;5034409;28;20036;-75
2022/06/08 12:45:46;;;;;;;3.30;0.47;;;17.10;99.90;;;;;;5033454;28;20041;-75
2022/06/08 12:48:20;;;;;;;3.45;0.70;;;17.20;99.90;;;;;;5033787;28;20139;-75
2022/06/08 12:50:46;;;;;;;1.83;0.30;;;17.20;99.90;;;;;;5032542;28;20025;-75
2022/06/08 12:53:12;;;;;;;0.95;0.32;;;17.30;99.90;;;;;;5033807;28;20045;-75
2022/06/08 12:55:40;;;;;;;4.25;0.50;;;17.30;99.90;;;;;;5033504;28;20431;-75
2022/06/08 12:58:06;;;;;;;6.00;0.77;;;17.40;99.90;;;;;;5034155;28;20021;-75
2022/06/08 13:00:33;;;;;;;2.70;0.20;;;17.50;99.90;;;;;;5033500;28;20256;-75
2022/06/08 13:03:02;;;;;;;3.05;0.65;;;17.40;99.90;;;;;;5032233;28;20047;-75
2022/06/08 13:05:31;;;;;;;1.90;0.20;;;17.40;99.90;;;;;;5033485;28;20028;-76
2022/06/08 13:07:58;;;;;;;5.20;0.77;;;17.40;99.90;;;;;;5033402;28;20018;-75
2022/06/08 13:10:26;;;;;;;1.80;0.17;;;17.30;99.90;;;;;;5032138;28;20079;-75
2022/06/08 13:12:55;;;;;;;2.72;0.10;;;17.20;99.90;;;;;;5034006;28;20079;-76
2022/06/08 13:15:30;;;;;;;2.53;0.08;;;17.10;99.90;;;;;;5032149;28;20493;-75
2022/06/08 13:17:57;;;;;;;1.75;0.00;;;17.10;99.90;;;;;;5032104;28;20018;-76
2022/06/08 13:20:32;;;;;;;0.77;0.00;;;17.00;99.90;;;;;;5033697;28;20545;-76
2022/06/08 13:22:58;;;;;;;0.95;0.10;;;16.90;99.90;;;;;;5033173;28;20390;-76
2022/06/08 13:25:25;;;;;;;0.63;0.00;;;16.90;99.90;;;;;;5033212;28;20559;-75